Nevendon, United Kingdom
Current Conditions -  °F | °C
As of 6:50 PM on Friday 21 Nov 2014 (Local Time) from EGMC Reporting Station
Light Rain Light Rain  
Wind Chill: 44°   Ceiling: 1000
Heat Index: 48°   Visibility: 3mi
Dew Point: 46°   Wind: 9mph
Humidity: 93%   Direction: 140°SE
Pressure: 29.97"   Gusts: NA
Location:  51.57°N, 0.52°E
Report Text: EGMC 211850Z 14008KT 5000 -RADZ BR BKN010 09/08 Q1015
Loading
Personal Weather Stations






























Interactive Weather Map New forecast layout! Learn more

10-Day Weather Forecast

Advertisements
Track Severe Weather on mobile